sensor_id;sensor_type;location;lat;lon;timestamp;temperature;humidity
33594;DHT22;19920;52.242;20.940;2022-07-22T00:00:57;21.80;99.90
33594;DHT22;19920;52.242;20.940;2022-07-22T00:03:23;21.70;99.90
33594;DHT22;19920;52.242;20.940;2022-07-22T00:05:49;21.80;99.90
33594;DHT22;19920;52.242;20.940;2022-07-22T00:08:14;21.80;99.90
33594;DHT22;19920;52.242;20.940;2022-07-22T00:10:41;21.80;99.90
33594;DHT22;19920;52.242;20.940;2022-07-22T00:13:06;21.80;99.90
33594;DHT22;19920;52.242;20.940;2022-07-22T00:15:32;21.80;99.90
33594;DHT22;19920;52.242;20.940;2022-07-22T00:17:58;21.80;99.90
33594;DHT22;19920;52.242;20.940;2022-07-22T00:20:24;21.80;99.90
33594;DHT22;19920;52.242;20.940;2022-07-22T00:22:50;21.80;99.90
33594;DHT22;19920;52.242;20.940;2022-07-22T00:25:15;21.80;99.90
33594;DHT22;19920;52.242;20.940;2022-07-22T00:27:41;21.80;99.90
33594;DHT22;19920;52.242;20.940;2022-07-22T00:30:07;21.80;99.90
33594;DHT22;19920;52.242;20.940;2022-07-22T00:32:33;21.80;99.90
33594;DHT22;19920;52.242;20.940;2022-07-22T00:34:59;21.80;99.90
33594;DHT22;19920;52.242;20.940;2022-07-22T00:37:25;21.80;99.90
33594;DHT22;19920;52.242;20.940;2022-07-22T00:39:51;21.80;99.90
33594;DHT22;19920;52.242;20.940;2022-07-22T00:42:18;21.80;99.90
33594;DHT22;19920;52.242;20.940;2022-07-22T00:44:43;21.70;99.90
33594;DHT22;19920;52.242;20.940;2022-07-22T00:47:11;21.70;99.90
33594;DHT22;19920;52.242;20.940;2022-07-22T00:49:37;21.70;99.90
33594;DHT22;19920;52.242;20.940;2022-07-22T00:52:03;21.60;99.90
33594;DHT22;19920;52.242;20.940;2022-07-22T00:54:30;21.60;99.90
33594;DHT22;19920;52.242;20.940;2022-07-22T00:56:56;21.60;99.90
33594;DHT22;19920;52.242;20.940;2022-07-22T00:59:21;21.60;99.90
33594;DHT22;19920;52.242;20.940;2022-07-22T01:01:47;21.50;99.90
33594;DHT22;19920;52.242;20.940;2022-07-22T01:04:13;21.50;99.90
33594;DHT22;19920;52.242;20.940;2022-07-22T01:06:39;21.50;99.90
33594;DHT22;19920;52.242;20.940;2022-07-22T01:09:04;21.50;99.90
33594;DHT22;19920;52.242;20.940;2022-07-22T01:11:30;21.50;99.90
33594;DHT22;19920;52.242;20.940;2022-07-22T01:13:56;21.50;99.90
33594;DHT22;19920;52.242;20.940;2022-07-22T01:16:23;21.50;99.90
33594;DHT22;19920;52.242;20.940;2022-07-22T01:18:48;21.50;99.90
33594;DHT22;19920;52.242;20.940;2022-07-22T01:21:15;21.50;99.90
33594;DHT22;19920;52.242;20.940;2022-07-22T01:23:42;21.50;99.90
33594;DHT22;19920;52.242;20.940;2022-07-22T01:26:08;21.40;99.90
33594;DHT22;19920;52.242;20.940;2022-07-22T01:28:34;21.40;99.90
33594;DHT22;19920;52.242;20.940;2022-07-22T01:31:00;21.40;99.90
33594;DHT22;19920;52.242;20.940;2022-07-22T01:33:25;21.40;99.90
33594;DHT22;19920;52.242;20.940;2022-07-22T01:35:51;21.40;99.90
33594;DHT22;19920;52.242;20.940;2022-07-22T01:38:18;21.40;99.90
33594;DHT22;19920;52.242;20.940;2022-07-22T01:40:44;21.40;99.90
33594;DHT22;19920;52.242;20.940;2022-07-22T01:43:10;21.40;99.90
33594;DHT22;19920;52.242;20.940;2022-07-22T01:45:36;21.30;99.90
33594;DHT22;19920;52.242;20.940;2022-07-22T01:48:03;21.30;99.90
33594;DHT22;19920;52.242;20.940;2022-07-22T01:50:29;21.30;99.90
33594;DHT22;19920;52.242;20.940;2022-07-22T01:52:55;21.30;99.90
33594;DHT22;19920;52.242;20.940;2022-07-22T01:55:21;21.20;99.90
33594;DHT22;19920;52.242;20.940;2022-07-22T01:57:47;21.20;99.90
33594;DHT22;19920;52.242;20.940;2022-07-22T02:00:13;21.20;99.90
33594;DHT22;19920;52.242;20.940;2022-07-22T02:02:39;21.20;99.90
33594;DHT22;19920;52.242;20.940;2022-07-22T02:05:05;21.30;99.90
33594;DHT22;19920;52.242;20.940;2022-07-22T02:07:31;21.20;99.90
33594;DHT22;19920;52.242;20.940;2022-07-22T02:09:57;21.20;99.90
33594;DHT22;19920;52.242;20.940;2022-07-22T02:12:23;21.10;99.90
33594;DHT22;19920;52.242;20.940;2022-07-22T02:14:48;21.10;99.90
33594;DHT22;19920;52.242;20.940;2022-07-22T02:17:14;21.00;99.90
33594;DHT22;19920;52.242;20.940;2022-07-22T02:19:41;21.00;99.90
33594;DHT22;19920;52.242;20.940;2022-07-22T02:22:07;20.90;99.90
33594;DHT22;19920;52.242;20.940;2022-07-22T02:24:33;20.90;99.90
33594;DHT22;19920;52.242;20.940;2022-07-22T02:26:59;20.90;99.90
33594;DHT22;19920;52.242;20.940;2022-07-22T02:29:25;20.90;99.90
33594;DHT22;19920;52.242;20.940;2022-07-22T02:31:51;20.90;99.90
33594;DHT22;19920;52.242;20.940;2022-07-22T02:34:17;20.90;99.90
33594;DHT22;19920;52.242;20.940;2022-07-22T02:36:43;21.00;99.90
33594;DHT22;19920;52.242;20.940;2022-07-22T02:39:08;21.00;99.90
33594;DHT22;19920;52.242;20.940;2022-07-22T02:41:34;21.00;99.90
33594;DHT22;19920;52.242;20.940;2022-07-22T02:44:00;20.90;99.90
33594;DHT22;19920;52.242;20.940;2022-07-22T02:46:27;20.90;99.90
33594;DHT22;19920;52.242;20.940;2022-07-22T02:48:54;20.90;99.90
33594;DHT22;19920;52.242;20.940;2022-07-22T02:51:20;20.80;99.90
33594;DHT22;19920;52.242;20.940;2022-07-22T02:53:46;20.80;99.90
33594;DHT22;19920;52.242;20.940;2022-07-22T02:56:12;20.80;99.90
33594;DHT22;19920;52.242;20.940;2022-07-22T02:58:38;20.70;99.90
33594;DHT22;19920;52.242;20.940;2022-07-22T03:01:04;20.70;99.90
33594;DHT22;19920;52.242;20.940;2022-07-22T03:03:30;20.70;99.90
33594;DHT22;19920;52.242;20.940;2022-07-22T03:05:56;20.70;99.90
33594;DHT22;19920;52.242;20.940;2022-07-22T03:08:21;20.60;99.90
33594;DHT22;19920;52.242;20.940;2022-07-22T03:10:47;20.60;99.90
33594;DHT22;19920;52.242;20.940;2022-07-22T03:13:13;20.50;99.90
33594;DHT22;19920;52.242;20.940;2022-07-22T03:15:38;20.50;99.90
33594;DHT22;19920;52.242;20.940;2022-07-22T03:18:04;20.40;99.90
33594;DHT22;19920;52.242;20.940;2022-07-22T03:20:30;20.40;99.90
33594;DHT22;19920;52.242;20.940;2022-07-22T03:22:56;20.40;99.90
33594;DHT22;19920;52.242;20.940;2022-07-22T03:25:21;20.40;99.90
33594;DHT22;19920;52.242;20.940;2022-07-22T03:27:47;20.30;99.90
33594;DHT22;19920;52.242;20.940;2022-07-22T03:30:13;20.30;99.90
33594;DHT22;19920;52.242;20.940;2022-07-22T03:32:38;20.40;99.90
33594;DHT22;19920;52.242;20.940;2022-07-22T03:35:10;20.40;99.90
33594;DHT22;19920;52.242;20.940;2022-07-22T03:37:36;20.40;99.90
33594;DHT22;19920;52.242;20.940;2022-07-22T03:40:01;20.40;99.90
33594;DHT22;19920;52.242;20.940;2022-07-22T03:42:27;20.40;99.90
33594;DHT22;19920;52.242;20.940;2022-07-22T03:44:53;20.50;99.90
33594;DHT22;19920;52.242;20.940;2022-07-22T03:47:19;20.50;99.90
33594;DHT22;19920;52.242;20.940;2022-07-22T03:49:45;20.50;99.90
33594;DHT22;19920;52.242;20.940;2022-07-22T03:52:11;20.60;99.90
33594;DHT22;19920;52.242;20.940;2022-07-22T03:54:36;20.60;99.90
33594;DHT22;19920;52.242;20.940;2022-07-22T03:57:02;20.70;99.90
33594;DHT22;19920;52.242;20.940;2022-07-22T03:59:28;20.70;99.90
33594;DHT22;19920;52.242;20.940;2022-07-22T04:01:53;20.80;99.90
33594;DHT22;19920;52.242;20.940;2022-07-22T04:04:19;20.80;99.90
33594;DHT22;19920;52.242;20.940;2022-07-22T04:06:45;20.80;99.90
33594;DHT22;19920;52.242;20.940;2022-07-22T04:09:10;20.80;99.90
33594;DHT22;19920;52.242;20.940;2022-07-22T04:11:36;20.90;99.90
33594;DHT22;19920;52.242;20.940;2022-07-22T04:14:02;20.90;99.90
33594;DHT22;19920;52.242;20.940;2022-07-22T04:16:28;21.00;99.90
33594;DHT22;19920;52.242;20.940;2022-07-22T04:18:53;21.00;99.90
33594;DHT22;19920;52.242;20.940;2022-07-22T04:21:19;21.10;99.90
33594;DHT22;19920;52.242;20.940;2022-07-22T04:23:44;21.20;99.90
33594;DHT22;19920;52.242;20.940;2022-07-22T04:26:10;21.20;99.90
33594;DHT22;19920;52.242;20.940;2022-07-22T04:28:36;21.30;99.90
33594;DHT22;19920;52.242;20.940;2022-07-22T04:31:03;21.40;99.90
33594;DHT22;19920;52.242;20.940;2022-07-22T04:33:29;21.40;99.90
33594;DHT22;19920;52.242;20.940;2022-07-22T04:35:55;21.50;99.90
33594;DHT22;19920;52.242;20.940;2022-07-22T04:38:20;21.50;99.90
33594;DHT22;19920;52.242;20.940;2022-07-22T04:40:46;21.60;99.90
33594;DHT22;19920;52.242;20.940;2022-07-22T04:43:12;21.70;99.90
33594;DHT22;19920;52.242;20.940;2022-07-22T04:45:38;21.90;99.90
33594;DHT22;19920;52.242;20.940;2022-07-22T04:48:03;22.00;99.90
33594;DHT22;19920;52.242;20.940;2022-07-22T04:50:29;22.00;99.90
33594;DHT22;19920;52.242;20.940;2022-07-22T04:52:55;22.10;99.90
33594;DHT22;19920;52.242;20.940;2022-07-22T04:55:21;22.30;99.90
33594;DHT22;19920;52.242;20.940;2022-07-22T04:57:46;22.40;99.90
33594;DHT22;19920;52.242;20.940;2022-07-22T05:00:12;22.40;99.90
33594;DHT22;19920;52.242;20.940;2022-07-22T05:02:38;22.50;99.90
33594;DHT22;19920;52.242;20.940;2022-07-22T05:05:04;22.60;99.90
33594;DHT22;19920;52.242;20.940;2022-07-22T05:07:30;22.70;99.90
33594;DHT22;19920;52.242;20.940;2022-07-22T05:09:56;22.70;99.90
33594;DHT22;19920;52.242;20.940;2022-07-22T05:12:21;22.90;99.90
33594;DHT22;19920;52.242;20.940;2022-07-22T05:14:47;22.90;99.90
33594;DHT22;19920;52.242;20.940;2022-07-22T05:17:13;23.00;99.90
33594;DHT22;19920;52.242;20.940;2022-07-22T05:19:39;23.10;99.90
33594;DHT22;19920;52.242;20.940;2022-07-22T05:22:08;23.20;99.90
33594;DHT22;19920;52.242;20.940;2022-07-22T05:24:34;23.20;99.90
33594;DHT22;19920;52.242;20.940;2022-07-22T05:27:00;23.30;99.90
33594;DHT22;19920;52.242;20.940;2022-07-22T05:29:26;23.40;99.90
33594;DHT22;19920;52.242;20.940;2022-07-22T05:31:51;23.50;99.90
33594;DHT22;19920;52.242;20.940;2022-07-22T05:34:17;23.60;99.90
33594;DHT22;19920;52.242;20.940;2022-07-22T05:36:43;23.70;99.90
33594;DHT22;19920;52.242;20.940;2022-07-22T05:39:09;23.70;99.90
33594;DHT22;19920;52.242;20.940;2022-07-22T05:41:34;23.80;99.90
33594;DHT22;19920;52.242;20.940;2022-07-22T05:44:00;23.90;99.90
33594;DHT22;19920;52.242;20.940;2022-07-22T05:46:26;24.00;99.90
33594;DHT22;19920;52.242;20.940;2022-07-22T05:48:52;24.10;99.90
33594;DHT22;19920;52.242;20.940;2022-07-22T05:51:17;24.10;99.90
33594;DHT22;19920;52.242;20.940;2022-07-22T05:53:43;24.20;99.90
33594;DHT22;19920;52.242;20.940;2022-07-22T05:56:10;24.30;99.90
33594;DHT22;19920;52.242;20.940;2022-07-22T05:58:37;24.40;99.90
33594;DHT22;19920;52.242;20.940;2022-07-22T06:01:03;24.50;99.90
33594;DHT22;19920;52.242;20.940;2022-07-22T06:03:29;24.60;99.90
33594;DHT22;19920;52.242;20.940;2022-07-22T06:05:55;24.70;99.90
33594;DHT22;19920;52.242;20.940;2022-07-22T06:08:21;24.80;99.90
33594;DHT22;19920;52.242;20.940;2022-07-22T06:10:46;25.00;99.90
33594;DHT22;19920;52.242;20.940;2022-07-22T06:13:12;25.20;99.90
33594;DHT22;19920;52.242;20.940;2022-07-22T06:15:38;25.30;99.90
33594;DHT22;19920;52.242;20.940;2022-07-22T06:18:03;25.30;99.90
33594;DHT22;19920;52.242;20.940;2022-07-22T06:20:29;25.40;99.90
33594;DHT22;19920;52.242;20.940;2022-07-22T06:22:55;25.40;99.90
33594;DHT22;19920;52.242;20.940;2022-07-22T06:25:20;25.50;99.90
33594;DHT22;19920;52.242;20.940;2022-07-22T06:27:46;25.60;99.90
33594;DHT22;19920;52.242;20.940;2022-07-22T06:30:12;25.60;99.90
33594;DHT22;19920;52.242;20.940;2022-07-22T06:32:38;25.70;99.90
33594;DHT22;19920;52.242;20.940;2022-07-22T06:35:04;25.70;99.90
33594;DHT22;19920;52.242;20.940;2022-07-22T06:37:29;25.80;99.90
33594;DHT22;19920;52.242;20.940;2022-07-22T06:39:55;25.90;99.90
33594;DHT22;19920;52.242;20.940;2022-07-22T06:42:21;26.00;99.90
33594;DHT22;19920;52.242;20.940;2022-07-22T06:44:48;26.00;99.90
33594;DHT22;19920;52.242;20.940;2022-07-22T06:47:14;26.10;99.90
33594;DHT22;19920;52.242;20.940;2022-07-22T06:49:39;26.10;99.90
33594;DHT22;19920;52.242;20.940;2022-07-22T06:52:05;26.20;99.90
33594;DHT22;19920;52.242;20.940;2022-07-22T06:54:31;26.30;99.90
33594;DHT22;19920;52.242;20.940;2022-07-22T06:56:56;26.40;99.90
33594;DHT22;19920;52.242;20.940;2022-07-22T06:59:23;26.40;99.90
33594;DHT22;19920;52.242;20.940;2022-07-22T07:01:50;26.50;99.90
33594;DHT22;19920;52.242;20.940;2022-07-22T07:04:16;26.70;99.90
33594;DHT22;19920;52.242;20.940;2022-07-22T07:06:44;26.70;99.90
33594;DHT22;19920;52.242;20.940;2022-07-22T07:09:09;26.70;99.90
33594;DHT22;19920;52.242;20.940;2022-07-22T07:11:35;26.70;99.90
33594;DHT22;19920;52.242;20.940;2022-07-22T07:14:01;26.80;99.90
33594;DHT22;19920;52.242;20.940;2022-07-22T07:16:27;26.90;99.90
33594;DHT22;19920;52.242;20.940;2022-07-22T07:18:52;26.90;99.90
33594;DHT22;19920;52.242;20.940;2022-07-22T07:21:18;27.10;99.90
33594;DHT22;19920;52.242;20.940;2022-07-22T07:23:44;27.10;99.90
33594;DHT22;19920;52.242;20.940;2022-07-22T07:26:12;27.20;99.90
33594;DHT22;19920;52.242;20.940;2022-07-22T07:28:39;27.30;99.90
33594;DHT22;19920;52.242;20.940;2022-07-22T07:31:08;27.40;99.90
33594;DHT22;19920;52.242;20.940;2022-07-22T07:33:34;27.40;99.90
33594;DHT22;19920;52.242;20.940;2022-07-22T07:36:00;27.50;99.90
33594;DHT22;19920;52.242;20.940;2022-07-22T07:38:26;27.60;99.90
33594;DHT22;19920;52.242;20.940;2022-07-22T07:40:52;27.60;99.90
33594;DHT22;19920;52.242;20.940;2022-07-22T07:43:18;27.60;99.90
33594;DHT22;19920;52.242;20.940;2022-07-22T07:45:44;27.60;99.90
33594;DHT22;19920;52.242;20.940;2022-07-22T07:48:10;27.60;99.90
33594;DHT22;19920;52.242;20.940;2022-07-22T07:50:36;27.60;99.90
33594;DHT22;19920;52.242;20.940;2022-07-22T07:53:02;27.70;99.90
33594;DHT22;19920;52.242;20.940;2022-07-22T07:55:28;27.70;99.90
33594;DHT22;19920;52.242;20.940;2022-07-22T07:57:54;27.70;99.90
33594;DHT22;19920;52.242;20.940;2022-07-22T08:00:24;27.70;99.90
33594;DHT22;19920;52.242;20.940;2022-07-22T08:02:53;27.60;99.90
33594;DHT22;19920;52.242;20.940;2022-07-22T08:05:21;27.60;99.90
33594;DHT22;19920;52.242;20.940;2022-07-22T08:07:47;27.40;99.90
33594;DHT22;19920;52.242;20.940;2022-07-22T08:10:13;27.50;99.90
33594;DHT22;19920;52.242;20.940;2022-07-22T08:12:39;27.60;99.90
33594;DHT22;19920;52.242;20.940;2022-07-22T08:15:06;27.70;99.90
33594;DHT22;19920;52.242;20.940;2022-07-22T08:17:34;27.70;99.90
33594;DHT22;19920;52.242;20.940;2022-07-22T08:20:00;27.70;99.90
33594;DHT22;19920;52.242;20.940;2022-07-22T08:22:26;27.70;99.90
33594;DHT22;19920;52.242;20.940;2022-07-22T08:24:52;27.70;99.90
33594;DHT22;19920;52.242;20.940;2022-07-22T08:27:20;27.70;99.90
33594;DHT22;19920;52.242;20.940;2022-07-22T08:29:45;27.70;99.90
33594;DHT22;19920;52.242;20.940;2022-07-22T08:32:11;27.70;99.90
33594;DHT22;19920;52.242;20.940;2022-07-22T08:34:37;27.90;99.90
33594;DHT22;19920;52.242;20.940;2022-07-22T08:37:03;28.00;99.90
33594;DHT22;19920;52.242;20.940;2022-07-22T08:39:28;28.00;99.90
33594;DHT22;19920;52.242;20.940;2022-07-22T08:41:56;28.20;99.90
33594;DHT22;19920;52.242;20.940;2022-07-22T08:44:22;28.00;99.90
33594;DHT22;19920;52.242;20.940;2022-07-22T08:46:48;28.00;99.90
33594;DHT22;19920;52.242;20.940;2022-07-22T08:49:15;28.10;99.90
33594;DHT22;19920;52.242;20.940;2022-07-22T08:51:41;28.10;99.90
33594;DHT22;19920;52.242;20.940;2022-07-22T08:54:07;28.20;99.90
33594;DHT22;19920;52.242;20.940;2022-07-22T08:56:33;28.20;99.90
33594;DHT22;19920;52.242;20.940;2022-07-22T08:58:59;28.30;99.90
33594;DHT22;19920;52.242;20.940;2022-07-22T09:01:24;28.30;99.90
33594;DHT22;19920;52.242;20.940;2022-07-22T09:03:52;28.40;99.90
33594;DHT22;19920;52.242;20.940;2022-07-22T09:06:25;28.50;99.90
33594;DHT22;19920;52.242;20.940;2022-07-22T09:11:21;28.60;99.90
33594;DHT22;19920;52.242;20.940;2022-07-22T09:13:48;28.70;99.90
33594;DHT22;19920;52.242;20.940;2022-07-22T09:16:15;28.80;99.90
33594;DHT22;19920;52.242;20.940;2022-07-22T09:18:53;28.80;99.90
33594;DHT22;19920;52.242;20.940;2022-07-22T09:21:23;28.90;99.90
33594;DHT22;19920;52.242;20.940;2022-07-22T09:23:49;29.00;99.90
33594;DHT22;19920;52.242;20.940;2022-07-22T09:26:35;29.10;99.90
33594;DHT22;19920;52.242;20.940;2022-07-22T09:29:03;29.00;99.90
33594;DHT22;19920;52.242;20.940;2022-07-22T09:31:34;29.10;99.90
33594;DHT22;19920;52.242;20.940;2022-07-22T09:34:01;29.20;99.90
33594;DHT22;19920;52.242;20.940;2022-07-22T09:36:28;29.20;99.90
33594;DHT22;19920;52.242;20.940;2022-07-22T09:38:54;29.40;99.90
33594;DHT22;19920;52.242;20.940;2022-07-22T09:41:21;29.40;99.90
33594;DHT22;19920;52.242;20.940;2022-07-22T09:43:47;29.50;99.90
33594;DHT22;19920;52.242;20.940;2022-07-22T09:46:15;29.60;99.90
33594;DHT22;19920;52.242;20.940;2022-07-22T09:48:41;29.60;99.90
33594;DHT22;19920;52.242;20.940;2022-07-22T09:51:08;29.50;99.90
33594;DHT22;19920;52.242;20.940;2022-07-22T09:53:34;29.60;99.90
33594;DHT22;19920;52.242;20.940;2022-07-22T09:56:03;29.60;99.90
33594;DHT22;19920;52.242;20.940;2022-07-22T09:58:30;29.70;99.90
33594;DHT22;19920;52.242;20.940;2022-07-22T10:00:59;29.70;99.90
33594;DHT22;19920;52.242;20.940;2022-07-22T10:03:28;29.70;99.90
33594;DHT22;19920;52.242;20.940;2022-07-22T10:05:55;29.60;99.90
33594;DHT22;19920;52.242;20.940;2022-07-22T10:08:22;29.60;99.90
33594;DHT22;19920;52.242;20.940;2022-07-22T10:10:49;29.60;99.90
33594;DHT22;19920;52.242;20.940;2022-07-22T10:13:18;29.80;99.90
33594;DHT22;19920;52.242;20.940;2022-07-22T10:15:46;30.00;99.90
33594;DHT22;19920;52.242;20.940;2022-07-22T10:18:17;30.00;99.90
33594;DHT22;19920;52.242;20.940;2022-07-22T10:20:47;29.70;99.90
33594;DHT22;19920;52.242;20.940;2022-07-22T10:23:15;29.60;99.90
33594;DHT22;19920;52.242;20.940;2022-07-22T10:25:51;29.80;99.90
33594;DHT22;19920;52.242;20.940;2022-07-22T10:28:30;30.00;99.90
33594;DHT22;19920;52.242;20.940;2022-07-22T10:33:50;30.40;99.90
33594;DHT22;19920;52.242;20.940;2022-07-22T10:36:33;30.40;99.90
33594;DHT22;19920;52.242;20.940;2022-07-22T10:39:09;30.40;99.90
33594;DHT22;19920;52.242;20.940;2022-07-22T10:41:38;30.50;99.90
33594;DHT22;19920;52.242;20.940;2022-07-22T10:44:06;30.50;99.90
33594;DHT22;19920;52.242;20.940;2022-07-22T10:46:52;30.60;99.90
33594;DHT22;19920;52.242;20.940;2022-07-22T10:49:25;30.70;99.90
33594;DHT22;19920;52.242;20.940;2022-07-22T10:55:15;30.70;99.90
33594;DHT22;19920;52.242;20.940;2022-07-22T10:57:40;30.90;99.90
33594;DHT22;19920;52.242;20.940;2022-07-22T11:00:07;30.90;99.90
33594;DHT22;19920;52.242;20.940;2022-07-22T11:02:34;31.10;99.90
33594;DHT22;19920;52.242;20.940;2022-07-22T11:05:02;31.30;99.90
33594;DHT22;19920;52.242;20.940;2022-07-22T11:07:28;31.30;99.90
33594;DHT22;19920;52.242;20.940;2022-07-22T11:12:37;31.40;99.90
33594;DHT22;19920;52.242;20.940;2022-07-22T11:15:03;31.50;99.90
33594;DHT22;19920;52.242;20.940;2022-07-22T11:17:32;31.60;99.90
33594;DHT22;19920;52.242;20.940;2022-07-22T11:20:01;31.70;99.90
33594;DHT22;19920;52.242;20.940;2022-07-22T11:22:27;31.90;99.90
33594;DHT22;19920;52.242;20.940;2022-07-22T11:24:53;31.90;99.90
33594;DHT22;19920;52.242;20.940;2022-07-22T11:27:19;31.70;99.90
33594;DHT22;19920;52.242;20.940;2022-07-22T11:29:52;31.60;99.90
33594;DHT22;19920;52.242;20.940;2022-07-22T11:32:19;31.60;99.90
33594;DHT22;19920;52.242;20.940;2022-07-22T11:34:45;31.80;99.90
33594;DHT22;19920;52.242;20.940;2022-07-22T11:37:13;32.10;99.90
33594;DHT22;19920;52.242;20.940;2022-07-22T11:39:38;32.30;99.90
33594;DHT22;19920;52.242;20.940;2022-07-22T11:42:04;32.50;99.90
33594;DHT22;19920;52.242;20.940;2022-07-22T11:44:33;32.60;99.90
33594;DHT22;19920;52.242;20.940;2022-07-22T11:46:59;32.90;99.90
33594;DHT22;19920;52.242;20.940;2022-07-22T11:49:32;32.80;99.90
33594;DHT22;19920;52.242;20.940;2022-07-22T11:52:08;32.80;99.90
33594;DHT22;19920;52.242;20.940;2022-07-22T11:54:38;32.70;99.90
33594;DHT22;19920;52.242;20.940;2022-07-22T11:57:04;32.70;99.90
33594;DHT22;19920;52.242;20.940;2022-07-22T11:59:29;32.60;99.90
33594;DHT22;19920;52.242;20.940;2022-07-22T12:01:55;32.60;99.90
33594;DHT22;19920;52.242;20.940;2022-07-22T12:04:25;32.30;99.90
33594;DHT22;19920;52.242;20.940;2022-07-22T12:06:53;32.60;99.90
33594;DHT22;19920;52.242;20.940;2022-07-22T12:09:23;32.80;99.90
33594;DHT22;19920;52.242;20.940;2022-07-22T12:11:52;33.00;99.90
33594;DHT22;19920;52.242;20.940;2022-07-22T12:14:20;33.00;99.90
33594;DHT22;19920;52.242;20.940;2022-07-22T12:17:02;32.90;99.90
33594;DHT22;19920;52.242;20.940;2022-07-22T12:19:30;33.00;99.90
33594;DHT22;19920;52.242;20.940;2022-07-22T12:22:11;33.00;99.90
33594;DHT22;19920;52.242;20.940;2022-07-22T12:24:40;32.90;99.90
33594;DHT22;19920;52.242;20.940;2022-07-22T12:27:07;33.00;99.90
33594;DHT22;19920;52.242;20.940;2022-07-22T12:32:10;33.30;99.90
33594;DHT22;19920;52.242;20.940;2022-07-22T12:37:16;33.50;99.90
33594;DHT22;19920;52.242;20.940;2022-07-22T12:43:00;33.60;99.90
33594;DHT22;19920;52.242;20.940;2022-07-22T12:45:28;33.50;99.90
33594;DHT22;19920;52.242;20.940;2022-07-22T12:47:56;33.50;99.90
33594;DHT22;19920;52.242;20.940;2022-07-22T12:55:23;33.40;99.90
33594;DHT22;19920;52.242;20.940;2022-07-22T12:57:49;33.50;99.90
33594;DHT22;19920;52.242;20.940;2022-07-22T13:00:17;33.40;99.90
33594;DHT22;19920;52.242;20.940;2022-07-22T13:02:43;33.30;99.90
33594;DHT22;19920;52.242;20.940;2022-07-22T13:05:09;33.50;99.90
33594;DHT22;19920;52.242;20.940;2022-07-22T13:07:35;33.50;99.90
33594;DHT22;19920;52.242;20.940;2022-07-22T13:10:00;33.40;99.90
33594;DHT22;19920;52.242;20.940;2022-07-22T13:12:26;33.70;99.90
33594;DHT22;19920;52.242;20.940;2022-07-22T13:14:51;33.50;99.90
33594;DHT22;19920;52.242;20.940;2022-07-22T13:17:17;33.60;99.90
33594;DHT22;19920;52.242;20.940;2022-07-22T13:19:44;33.80;99.90
33594;DHT22;19920;52.242;20.940;2022-07-22T13:22:10;34.00;99.90
33594;DHT22;19920;52.242;20.940;2022-07-22T13:24:37;33.90;99.90
33594;DHT22;19920;52.242;20.940;2022-07-22T13:27:02;34.10;99.90
33594;DHT22;19920;52.242;20.940;2022-07-22T13:29:28;33.90;99.90
33594;DHT22;19920;52.242;20.940;2022-07-22T13:31:54;33.50;99.90
33594;DHT22;19920;52.242;20.940;2022-07-22T13:34:19;33.70;99.90
33594;DHT22;19920;52.242;20.940;2022-07-22T13:36:45;34.00;99.90
33594;DHT22;19920;52.242;20.940;2022-07-22T13:39:11;34.20;99.90
33594;DHT22;19920;52.242;20.940;2022-07-22T13:41:36;34.20;99.90
33594;DHT22;19920;52.242;20.940;2022-07-22T13:44:02;34.20;99.90
33594;DHT22;19920;52.242;20.940;2022-07-22T13:46:28;34.50;99.90
33594;DHT22;19920;52.242;20.940;2022-07-22T13:48:54;34.60;99.90
33594;DHT22;19920;52.242;20.940;2022-07-22T13:51:20;34.20;99.90
33594;DHT22;19920;52.242;20.940;2022-07-22T13:53:45;34.20;99.90
33594;DHT22;19920;52.242;20.940;2022-07-22T13:56:11;34.20;99.90
33594;DHT22;19920;52.242;20.940;2022-07-22T13:58:38;34.50;99.90
33594;DHT22;19920;52.242;20.940;2022-07-22T14:01:06;34.80;99.90
33594;DHT22;19920;52.242;20.940;2022-07-22T14:03:33;35.10;99.90
33594;DHT22;19920;52.242;20.940;2022-07-22T14:05:58;35.50;99.90
33594;DHT22;19920;52.242;20.940;2022-07-22T14:08:24;35.60;99.90
33594;DHT22;19920;52.242;20.940;2022-07-22T14:10:50;36.30;99.90
33594;DHT22;19920;52.242;20.940;2022-07-22T14:13:15;37.20;99.90
33594;DHT22;19920;52.242;20.940;2022-07-22T14:15:41;37.60;99.90
33594;DHT22;19920;52.242;20.940;2022-07-22T14:18:07;38.00;99.90
33594;DHT22;19920;52.242;20.940;2022-07-22T14:20:34;38.40;99.90
33594;DHT22;19920;52.242;20.940;2022-07-22T14:22:59;38.40;99.90
33594;DHT22;19920;52.242;20.940;2022-07-22T14:25:27;37.70;99.90
33594;DHT22;19920;52.242;20.940;2022-07-22T14:27:52;37.20;99.90
33594;DHT22;19920;52.242;20.940;2022-07-22T14:30:18;37.90;99.60
33594;DHT22;19920;52.242;20.940;2022-07-22T14:32:43;37.90;99.50
33594;DHT22;19920;52.242;20.940;2022-07-22T14:38:31;39.30;97.70
33594;DHT22;19920;52.242;20.940;2022-07-22T14:40:57;39.70;96.60
33594;DHT22;19920;52.242;20.940;2022-07-22T14:43:22;40.50;96.60
33594;DHT22;19920;52.242;20.940;2022-07-22T14:45:48;41.00;95.70
33594;DHT22;19920;52.242;20.940;2022-07-22T14:48:14;41.30;94.80
33594;DHT22;19920;52.242;20.940;2022-07-22T14:50:40;39.90;94.40
33594;DHT22;19920;52.242;20.940;2022-07-22T14:53:06;39.90;95.30
33594;DHT22;19920;52.242;20.940;2022-07-22T14:55:32;40.00;94.60
33594;DHT22;19920;52.242;20.940;2022-07-22T14:57:58;39.60;94.20
33594;DHT22;19920;52.242;20.940;2022-07-22T15:00:23;39.30;94.20
33594;DHT22;19920;52.242;20.940;2022-07-22T15:02:49;39.30;94.40
33594;DHT22;19920;52.242;20.940;2022-07-22T15:05:15;39.20;94.30
33594;DHT22;19920;52.242;20.940;2022-07-22T15:07:40;39.10;93.80
33594;DHT22;19920;52.242;20.940;2022-07-22T15:10:07;39.40;94.10
33594;DHT22;19920;52.242;20.940;2022-07-22T15:12:33;39.50;93.90
33594;DHT22;19920;52.242;20.940;2022-07-22T15:14:59;39.60;93.60
33594;DHT22;19920;52.242;20.940;2022-07-22T15:17:25;39.30;93.70
33594;DHT22;19920;52.242;20.940;2022-07-22T15:19:50;39.10;92.80
33594;DHT22;19920;52.242;20.940;2022-07-22T15:22:16;38.40;92.80
33594;DHT22;19920;52.242;20.940;2022-07-22T15:24:42;38.40;93.00
33594;DHT22;19920;52.242;20.940;2022-07-22T15:27:08;38.20;93.10
33594;DHT22;19920;52.242;20.940;2022-07-22T15:29:33;38.80;93.50
33594;DHT22;19920;52.242;20.940;2022-07-22T15:32:00;39.00;92.40
33594;DHT22;19920;52.242;20.940;2022-07-22T15:34:29;39.00;92.00
33594;DHT22;19920;52.242;20.940;2022-07-22T15:36:56;38.40;92.80
33594;DHT22;19920;52.242;20.940;2022-07-22T15:39:21;36.80;93.50